»·PEaware :: N347GL KSMX-KBFL

N347GL :: KSMX-KBFL

FLIGHT INFORMATION

Flight Status: Arrived
Operator: Privately registered:
United States
More flights under this callsign
Pilot: Greg L. (17564)
Aircraft: MOONEY M-20K/M ENCORE BRAVO
(M20T)
More flights by this aircraft type
Origin: KSMX Santa Maria Pub/Capt Hancock
United States
Destination: KBFL Meadows
United States
More flights between these airports :: More routes between these airports
Route: +
File this flight plan on PilotEdge
Remarks: CAT V
Altitude:
(Current/Filed)
7,500ft
Speed:
(Current/Filed)
140kts
Departed: 12-Jan-18 02:07 PM
Arrived: 12-Jan-18 02:42 PM
Distance/Time
Traveled:
76nm/0:35
Distance/Time
To Go:
Arrived

Flight Plot

Page will automatically refresh every two minutes.


Map Options




Map Legend


Flown Route
Filed Route
Departure Airport
Arrival Airport
Navaid (VOR, NDB)
Fix

Horizontal Profiles

Position Reports

Time Latitude Longitude Heading Altitude Ground
Speed
12-Jan-18 13:51 34.898084 -120.447576 44 227ft 0kts
12-Jan-18 13:52 34.898084 -120.447576 44 227ft 0kts
12-Jan-18 13:53 34.898084 -120.447576 44 227ft 0kts
12-Jan-18 13:54 34.898084 -120.447576 44 227ft 0kts
12-Jan-18 13:55 34.898084 -120.447576 44 227ft 0kts
12-Jan-18 13:56 34.898084 -120.447576 44 227ft 0kts
12-Jan-18 13:57 34.898084 -120.447576 44 227ft 0kts
12-Jan-18 13:58 34.898084 -120.447576 44 227ft 0kts
12-Jan-18 13:59 34.898084 -120.447576 44 227ft 0kts
12-Jan-18 14:00 34.898084 -120.447576 44 227ft 0kts
12-Jan-18 14:01 34.898084 -120.447576 44 227ft 0kts
12-Jan-18 14:02 34.898084 -120.447576 44 227ft 0kts
12-Jan-18 14:03 34.898087 -120.447572 44 227ft 0kts
12-Jan-18 14:04 34.898090 -120.447568 44 227ft 0kts
12-Jan-18 14:05 34.898094 -120.447564 44 227ft 0kts
12-Jan-18 14:06 34.898097 -120.447559 44 227ft 0kts
12-Jan-18 14:07 34.898101 -120.447555 44 227ft 0kts
12-Jan-18 14:08 34.897479 -120.448261 226 227ft 10kts
12-Jan-18 14:09 34.895958 -120.447613 136 227ft 7kts
12-Jan-18 14:10 34.894458 -120.445858 136 227ft 5kts
12-Jan-18 14:11 34.893592 -120.445724 182 227ft 0kts
12-Jan-18 14:12 34.892981 -120.445774 204 227ft 8kts
12-Jan-18 14:13 34.902127 -120.458446 315 686ft 87kts
12-Jan-18 14:14 34.923025 -120.474931 9 1867ft 100kts
12-Jan-18 14:15 34.939546 -120.446520 56 3122ft 104kts
12-Jan-18 14:16 34.954546 -120.413638 56 4565ft 116kts
12-Jan-18 14:17 34.967454 -120.384345 56 5827ft 118kts
12-Jan-18 14:18 34.983339 -120.346256 54 7395ft 93kts
12-Jan-18 14:19 34.998778 -120.308452 58 7516ft 155kts
12-Jan-18 14:20 35.016327 -120.264880 60 7509ft 182kts
12-Jan-18 14:21 35.033790 -120.205634 65 7510ft 182kts
12-Jan-18 14:22 35.053788 -120.151493 54 7511ft 175kts
12-Jan-18 14:23 35.075494 -120.099858 59 7510ft 178kts
12-Jan-18 14:24 35.093985 -120.046251 61 7503ft 167kts
12-Jan-18 14:25 35.112146 -119.994066 61 7502ft 169kts
12-Jan-18 14:26 35.131201 -119.939651 61 7499ft 181kts
12-Jan-18 14:27 35.150782 -119.883809 61 7497ft 179kts
12-Jan-18 14:28 35.169928 -119.828707 60 7518ft 174kts
12-Jan-18 14:29 35.188964 -119.774077 61 6942ft 174kts
12-Jan-18 14:30 35.208302 -119.718288 62 5950ft 180kts
12-Jan-18 14:31 35.228119 -119.660997 63 5563ft 179kts
12-Jan-18 14:32 35.246973 -119.605757 62 5589ft 174kts
12-Jan-18 14:33 35.265800 -119.550981 63 5596ft 174kts
12-Jan-18 14:34 35.284706 -119.495852 62 5493ft 179kts
12-Jan-18 14:35 35.304397 -119.438578 63 4765ft 192kts
12-Jan-18 14:36 35.325336 -119.379052 63 3668ft 187kts
12-Jan-18 14:37 35.343659 -119.324255 64 3511ft 163kts
12-Jan-18 14:38 35.360154 -119.275430 63 3513ft 151kts
12-Jan-18 14:39 35.375756 -119.229436 63 3514ft 141kts
12-Jan-18 14:40 35.389037 -119.190319 66 3325ft 139kts
12-Jan-18 14:41 35.404876 -119.147456 58 3043ft 135kts
12-Jan-18 14:42 35.416925 -119.107266 109 2603ft 122kts
12-Jan-18 14:43 35.399770 -119.077031 131 2500ft 100kts
12-Jan-18 14:44 35.378510 -119.051960 139 2293ft 115kts
12-Jan-18 14:45 35.383863 -119.021809 53 2121ft 97kts
12-Jan-18 14:46 35.406510 -119.027271 314 1310ft 104kts
12-Jan-18 14:47 35.425776 -119.050140 315 632ft 83kts
12-Jan-18 14:48 35.434755 -119.060090 22 510ft 3kts
12-Jan-18 14:49 35.434800 -119.060057 38 510ft 0kts
12-Jan-18 14:50 35.435178 -119.059567 43 510ft 5kts
12-Jan-18 14:51 35.436374 -119.057213 93 510ft 8kts
12-Jan-18 14:52 35.435287 -119.055673 134 510ft 8kts
12-Jan-18 14:53 35.433888 -119.054029 136 510ft 10kts
12-Jan-18 14:54 35.432489 -119.052338 136 510ft 3kts
12-Jan-18 14:55 35.430867 -119.050347 133 510ft 11kts
12-Jan-18 14:56 35.430021 -119.048197 64 510ft 3kts
12-Jan-18 14:57 35.429822 -119.046897 133 510ft 0kts
12-Jan-18 14:58 35.429822 -119.046897 133 510ft 0kts
12-Jan-18 14:59 35.429822 -119.046897 133 510ft 0kts
12-Jan-18 15:00 35.429822 -119.046897 133 510ft 0kts
12-Jan-18 15:01 35.429822 -119.046897 133 510ft 0kts
12-Jan-18 15:02 35.429822 -119.046897 133 510ft 0kts

Navigation Log

Ident Type
1. KSMX Airport
2. KBFL Airport